createdAt,value
2023-03-20T00:02:22.374Z,15.7
2023-03-20T00:08:15.162Z,15.6
2023-03-20T00:13:54.224Z,15.6
2023-03-20T00:19:46.843Z,15.5
2023-03-20T00:25:24.302Z,15.4
2023-03-20T00:31:16.807Z,15.4
2023-03-20T00:36:54.490Z,15.3
2023-03-20T00:42:31.337Z,15.4
2023-03-20T00:48:08.976Z,15.6
2023-03-20T00:53:46.887Z,15.6
2023-03-20T00:59:39.554Z,15.8
2023-03-20T01:05:32.339Z,15.8
2023-03-20T01:11:24.917Z,15.7
2023-03-20T01:16:47.181Z,15.6
2023-03-20T01:22:38.750Z,15.5
2023-03-20T01:28:16.803Z,15.4
2023-03-20T01:34:09.360Z,15.4
2023-03-20T01:40:02.715Z,15.3
2023-03-20T01:45:54.936Z,15.4
2023-03-20T01:51:47.389Z,15.6
2023-03-20T01:57:23.492Z,15.6
2023-03-20T02:03:16.108Z,15.6
2023-03-20T02:08:53.656Z,15.5
2023-03-20T02:14:30.451Z,15.4
2023-03-20T02:19:52.949Z,15.4
2023-03-20T02:25:45.632Z,15.3
2023-03-20T02:31:38.215Z,15.3
2023-03-20T02:37:16.935Z,15.2
2023-03-20T02:43:10.158Z,15.4
2023-03-20T02:49:03.297Z,15.5
2023-03-20T02:54:40.856Z,15.6
2023-03-20T03:00:33.696Z,15.4
2023-03-20T03:06:11.144Z,15.4
2023-03-20T03:11:32.823Z,15.3
2023-03-20T03:17:10.945Z,15.3
2023-03-20T03:22:48.273Z,15.2
2023-03-20T03:28:34.204Z,15.1
2023-03-20T03:34:27.228Z,15.2
2023-03-20T03:40:04.458Z,15.4
2023-03-20T03:45:41.793Z,15.6
2023-03-20T03:51:34.124Z,15.5
2023-03-20T03:56:55.573Z,15.4
2023-03-20T04:02:33.500Z,15.3
2023-03-20T04:08:28.672Z,15.3
2023-03-20T04:14:05.018Z,15.3
2023-03-20T04:19:45.602Z,15.1
2023-03-20T04:25:23.150Z,15.1
2023-03-20T04:31:19.179Z,15.3
2023-03-20T04:37:11.833Z,15.3
2023-03-20T04:42:50.597Z,15.3
2023-03-20T04:48:26.590Z,15.5
2023-03-20T04:54:18.840Z,15.6
2023-03-20T04:59:55.619Z,15.6
2023-03-20T05:05:52.068Z,15.4
2023-03-20T05:11:44.669Z,15.3
2023-03-20T05:17:22.760Z,15.3
2023-03-20T05:23:14.850Z,15.2
2023-03-20T05:29:07.582Z,15.1
2023-03-20T05:35:01.869Z,15.1
2023-03-20T05:40:55.605Z,15.3
2023-03-20T05:46:32.843Z,15.4
2023-03-20T05:52:10.190Z,15.5
2023-03-20T05:58:05.681Z,15.4
2023-03-20T06:03:58.634Z,15.3
2023-03-20T06:09:51.047Z,15.3
2023-03-20T06:15:45.724Z,15.2
2023-03-20T06:21:38.844Z,15.1
2023-03-20T06:27:32.150Z,15.1
2023-03-20T06:33:25.464Z,15.3
2023-03-20T06:39:17.776Z,15.4
2023-03-20T06:45:25.025Z,15.4
2023-03-20T06:51:01.819Z,15.4
2023-03-20T06:56:53.682Z,15.3
2023-03-20T07:02:46.496Z,15.3
2023-03-20T07:08:39.804Z,15.3
2023-03-20T07:14:32.200Z,15.3
2023-03-20T07:20:44.638Z,15.5
2023-03-20T07:26:49.299Z,15.6
2023-03-20T07:32:43.296Z,15.6
2023-03-20T07:38:36.818Z,15.5
2023-03-20T07:44:29.910Z,15.6
2023-03-20T07:50:24.869Z,15.8
2023-03-20T07:56:17.875Z,15.8
2023-03-20T08:02:10.101Z,15.7
2023-03-20T08:08:05.461Z,15.6
2023-03-20T08:13:59.381Z,15.8
2023-03-20T08:20:08.489Z,15.9
2023-03-20T08:26:01.265Z,15.8
2023-03-20T08:31:50.274Z,15.7
2023-03-20T08:37:59.025Z,15.8
2023-03-20T08:43:52.178Z,15.9
2023-03-20T08:49:44.688Z,15.9
2023-03-20T08:55:37.469Z,15.9
2023-03-20T09:01:41.982Z,15.8
2023-03-20T09:07:24.865Z,16
2023-03-20T09:12:32.749Z,16
2023-03-20T09:18:30.610Z,15.9
2023-03-20T09:24:08.042Z,15.8
2023-03-20T09:30:00.970Z,15.9
2023-03-20T09:35:40.445Z,16
2023-03-20T09:41:38.486Z,16.1
2023-03-20T09:47:52.525Z,16
2023-03-20T09:53:44.633Z,15.9
2023-03-20T09:59:51.851Z,16.1
2023-03-20T10:05:31.714Z,16.1
2023-03-20T10:11:25.051Z,16.1
2023-03-20T10:17:19.112Z,16
2023-03-20T10:23:10.466Z,16.1
2023-03-20T10:28:49.271Z,16.2
2023-03-20T10:34:43.187Z,16.1
2023-03-20T10:40:36.047Z,16
2023-03-20T10:46:29.184Z,15.9
2023-03-20T10:52:07.562Z,15.8
2023-03-20T10:58:00.225Z,15.8
2023-03-20T11:03:22.529Z,15.7
2023-03-20T11:09:27.129Z,15.6
2023-03-20T11:15:22.768Z,15.5
2023-03-20T11:21:18.309Z,15.4
2023-03-20T11:27:13.544Z,15.4
2023-03-20T11:33:18.539Z,15.3
2023-03-20T11:39:23.457Z,15.3
2023-03-20T11:45:17.074Z,15.2
2023-03-20T11:51:10.118Z,15.1
2023-03-20T11:57:06.669Z,15.1
2023-03-20T12:03:00.967Z,15
2023-03-20T12:08:54.303Z,14.9
2023-03-20T12:14:46.949Z,14.9
2023-03-20T12:20:40.701Z,14.9
2023-03-20T12:26:33.247Z,14.8
2023-03-20T12:32:26.708Z,14.8
2023-03-20T12:38:19.983Z,14.8
2023-03-20T12:44:13.104Z,14.7
2023-03-20T12:49:37.904Z,14.7
2023-03-20T12:55:31.368Z,14.7
2023-03-20T13:01:23.864Z,14.6
2023-03-20T13:07:00.932Z,14.6
2023-03-20T13:12:54.294Z,14.6
2023-03-20T13:18:48.664Z,14.6
2023-03-20T13:24:13.041Z,14.5
2023-03-20T13:30:06.978Z,14.5
2023-03-20T13:36:02.009Z,14.5
2023-03-20T13:42:04.512Z,14.5
2023-03-20T13:48:02.128Z,14.5
2023-03-20T13:53:56.186Z,14.4
2023-03-20T13:59:33.853Z,14.4
2023-03-20T14:05:12.016Z,14.4
2023-03-20T14:10:36.553Z,14.4
2023-03-20T14:16:14.370Z,14.4
2023-03-20T14:21:36.907Z,14.4
2023-03-20T14:26:58.776Z,14.4
2023-03-20T14:32:23.373Z,14.4
2023-03-20T14:38:17.552Z,14.4
2023-03-20T14:43:54.039Z,14.4
2023-03-20T14:49:49.964Z,14.3
2023-03-20T14:55:43.386Z,14.3
2023-03-20T15:01:34.321Z,14.3
2023-03-20T15:07:26.908Z,14.4
2023-03-20T15:13:21.963Z,14.4
2023-03-20T15:19:14.753Z,14.4
2023-03-20T15:25:09.947Z,14.4
2023-03-20T15:31:05.395Z,14.4
2023-03-20T15:36:57.109Z,14.4
2023-03-20T15:43:02.919Z,14.3
2023-03-20T15:49:18.172Z,14.4
2023-03-20T15:54:55.217Z,14.4
2023-03-20T16:00:28.512Z,14.4
2023-03-20T16:06:24.113Z,14.4
2023-03-20T16:12:17.622Z,14.4
2023-03-20T16:18:10.474Z,14.4
2023-03-20T16:24:03.915Z,14.3
2023-03-20T16:29:55.445Z,14.4
2023-03-20T16:35:50.458Z,14.4
2023-03-20T16:41:44.288Z,14.4
2023-03-20T16:47:37.131Z,14.4
2023-03-20T16:53:29.828Z,14.4
2023-03-20T16:59:07.278Z,14.4
2023-03-20T17:04:28.761Z,14.4
2023-03-20T17:10:06.428Z,14.4
2023-03-20T17:16:00.654Z,14.4
2023-03-20T17:21:52.637Z,14.4
2023-03-20T17:27:47.139Z,14.4
2023-03-20T17:33:41.652Z,14.4
2023-03-20T17:39:03.067Z,14.4
2023-03-20T17:44:56.413Z,14.4
2023-03-20T17:51:07.803Z,14.4
2023-03-20T17:56:45.975Z,14.4
2023-03-20T18:02:40.200Z,14.4
2023-03-20T18:08:33.892Z,14.4
2023-03-20T18:14:13.144Z,14.4
2023-03-20T18:20:06.094Z,14.4
2023-03-20T18:25:44.787Z,14.4
2023-03-20T18:31:20.444Z,14.4
2023-03-20T18:36:11.848Z,14.4
2023-03-20T18:41:34.564Z,14.4
2023-03-20T18:46:40.314Z,14.4
2023-03-20T18:52:02.654Z,14.4
2023-03-20T18:57:42.867Z,14.4
2023-03-20T19:03:35.158Z,14.4
2023-03-20T19:09:12.802Z,14.3
2023-03-20T19:14:36.192Z,14.3
2023-03-20T19:20:29.693Z,14.3
2023-03-20T19:26:36.937Z,14.3
2023-03-20T19:32:33.411Z,14.3
2023-03-20T19:39:47.078Z,14.3
2023-03-20T19:46:54.729Z,14.3
2023-03-20T19:53:10.559Z,14.3
2023-03-20T19:58:43.343Z,14.3
2023-03-20T20:05:25.216Z,14.3
2023-03-20T20:12:39.992Z,14.3
2023-03-20T20:18:57.940Z,14.3
2023-03-20T20:26:15.574Z,14.4
2023-03-20T20:32:37.432Z,15
2023-03-20T20:41:37.442Z,15.4
2023-03-20T20:47:47.008Z,15.8
2023-03-20T20:53:48.571Z,15.8
2023-03-20T21:00:02.293Z,15.9
2023-03-20T21:06:10.555Z,16.2
2023-03-20T21:12:58.396Z,16.2
2023-03-20T21:18:33.555Z,16.4
2023-03-20T21:24:47.166Z,16.3
2023-03-20T21:31:25.107Z,16.3
2023-03-20T21:44:59.791Z,16.5
2023-03-20T22:02:32.324Z,16.4
2023-03-20T22:20:15.173Z,16.5
2023-03-20T22:41:10.094Z,16.6
2023-03-20T22:50:16.855Z,16.5
2023-03-20T22:56:35.869Z,16.5
2023-03-20T23:02:34.012Z,16.4
2023-03-20T23:09:08.968Z,16.4
2023-03-20T23:15:02.685Z,16.6
2023-03-20T23:21:01.331Z,16.6
2023-03-20T23:26:45.655Z,16.5
2023-03-20T23:32:57.252Z,16.4
2023-03-20T23:39:05.840Z,16.4
2023-03-20T23:45:54.267Z,16.6
2023-03-20T23:52:32.816Z,16.5
2023-03-20T23:58:47.512Z,16.4
